sensor_id;sensor_type;location;lat;lon;timestamp;P1;durP1;ratioP1;P2;durP2;ratioP2
20609;SDS011;10463;52.378;9.688;2023-07-16T00:01:04;2.40;;;1.93;;
20609;SDS011;10463;52.378;9.688;2023-07-16T00:03:49;2.30;;;1.97;;
20609;SDS011;10463;52.378;9.688;2023-07-16T00:06:33;2.30;;;1.70;;
20609;SDS011;10463;52.378;9.688;2023-07-16T00:09:18;2.20;;;1.67;;
20609;SDS011;10463;52.378;9.688;2023-07-16T00:12:04;1.80;;;1.50;;
20609;SDS011;10463;52.378;9.688;2023-07-16T00:14:49;1.90;;;1.70;;
20609;SDS011;10463;52.378;9.688;2023-07-16T00:17:36;2.27;;;1.77;;
20609;SDS011;10463;52.378;9.688;2023-07-16T00:20:20;2.77;;;1.93;;
20609;SDS011;10463;52.378;9.688;2023-07-16T00:23:07;1.93;;;1.70;;
20609;SDS011;10463;52.378;9.688;2023-07-16T00:25:51;1.80;;;1.27;;
20609;SDS011;10463;52.378;9.688;2023-07-16T00:28:36;2.53;;;1.80;;
20609;SDS011;10463;52.378;9.688;2023-07-16T00:31:21;1.93;;;1.60;;
20609;SDS011;10463;52.378;9.688;2023-07-16T00:34:07;1.83;;;1.60;;
20609;SDS011;10463;52.378;9.688;2023-07-16T00:36:52;2.00;;;1.50;;
20609;SDS011;10463;52.378;9.688;2023-07-16T00:39:37;2.47;;;2.00;;
20609;SDS011;10463;52.378;9.688;2023-07-16T00:42:22;2.40;;;2.00;;
20609;SDS011;10463;52.378;9.688;2023-07-16T00:45:11;1.70;;;1.20;;
20609;SDS011;10463;52.378;9.688;2023-07-16T00:47:57;1.77;;;1.47;;
20609;SDS011;10463;52.378;9.688;2023-07-16T00:50:43;2.80;;;1.83;;
20609;SDS011;10463;52.378;9.688;2023-07-16T00:53:29;2.20;;;1.70;;
20609;SDS011;10463;52.378;9.688;2023-07-16T00:56:15;2.10;;;1.40;;
20609;SDS011;10463;52.378;9.688;2023-07-16T00:59:02;2.50;;;1.33;;
20609;SDS011;10463;52.378;9.688;2023-07-16T01:01:47;2.10;;;1.43;;
20609;SDS011;10463;52.378;9.688;2023-07-16T01:04:32;2.57;;;1.40;;
20609;SDS011;10463;52.378;9.688;2023-07-16T01:07:18;2.63;;;1.40;;
20609;SDS011;10463;52.378;9.688;2023-07-16T01:10:08;1.80;;;1.30;;
20609;SDS011;10463;52.378;9.688;2023-07-16T01:12:53;1.60;;;1.30;;
20609;SDS011;10463;52.378;9.688;2023-07-16T01:15:40;2.67;;;1.57;;
20609;SDS011;10463;52.378;9.688;2023-07-16T01:18:25;2.13;;;1.40;;
20609;SDS011;10463;52.378;9.688;2023-07-16T01:21:09;2.20;;;1.50;;
20609;SDS011;10463;52.378;9.688;2023-07-16T01:24:16;1.50;;;1.20;;
20609;SDS011;10463;52.378;9.688;2023-07-16T01:27:29;4.03;;;1.47;;
20609;SDS011;10463;52.378;9.688;2023-07-16T01:30:32;2.00;;;1.80;;
20609;SDS011;10463;52.378;9.688;2023-07-16T01:33:17;1.70;;;1.37;;
20609;SDS011;10463;52.378;9.688;2023-07-16T01:36:06;2.43;;;1.53;;
20609;SDS011;10463;52.378;9.688;2023-07-16T01:38:52;1.80;;;1.50;;
20609;SDS011;10463;52.378;9.688;2023-07-16T01:41:36;1.80;;;1.20;;
20609;SDS011;10463;52.378;9.688;2023-07-16T01:44:22;3.90;;;1.40;;
20609;SDS011;10463;52.378;9.688;2023-07-16T01:47:10;2.30;;;1.40;;
20609;SDS011;10463;52.378;9.688;2023-07-16T01:49:57;1.80;;;1.37;;
20609;SDS011;10463;52.378;9.688;2023-07-16T01:52:42;1.90;;;1.50;;
20609;SDS011;10463;52.378;9.688;2023-07-16T01:55:26;2.37;;;1.50;;
20609;SDS011;10463;52.378;9.688;2023-07-16T01:58:12;1.67;;;1.20;;
20609;SDS011;10463;52.378;9.688;2023-07-16T02:00:57;1.87;;;1.37;;
20609;SDS011;10463;52.378;9.688;2023-07-16T02:03:43;1.73;;;1.13;;
20609;SDS011;10463;52.378;9.688;2023-07-16T02:06:28;1.60;;;1.40;;
20609;SDS011;10463;52.378;9.688;2023-07-16T02:09:13;1.67;;;1.00;;
20609;SDS011;10463;52.378;9.688;2023-07-16T02:11:58;1.60;;;1.00;;
20609;SDS011;10463;52.378;9.688;2023-07-16T02:14:42;1.80;;;1.33;;
20609;SDS011;10463;52.378;9.688;2023-07-16T02:17:27;1.80;;;1.00;;
20609;SDS011;10463;52.378;9.688;2023-07-16T02:20:13;2.03;;;1.37;;
20609;SDS011;10463;52.378;9.688;2023-07-16T02:22:57;1.50;;;1.17;;
20609;SDS011;10463;52.378;9.688;2023-07-16T02:25:44;2.17;;;1.40;;
20609;SDS011;10463;52.378;9.688;2023-07-16T02:28:29;2.00;;;1.40;;
20609;SDS011;10463;52.378;9.688;2023-07-16T02:31:14;1.70;;;1.20;;
20609;SDS011;10463;52.378;9.688;2023-07-16T02:33:59;1.50;;;1.17;;
20609;SDS011;10463;52.378;9.688;2023-07-16T02:36:45;1.53;;;1.10;;
20609;SDS011;10463;52.378;9.688;2023-07-16T02:39:30;2.57;;;1.40;;
20609;SDS011;10463;52.378;9.688;2023-07-16T02:42:14;1.50;;;1.17;;
20609;SDS011;10463;52.378;9.688;2023-07-16T02:44:59;1.60;;;0.90;;
20609;SDS011;10463;52.378;9.688;2023-07-16T02:47:44;2.43;;;1.20;;
20609;SDS011;10463;52.378;9.688;2023-07-16T02:50:29;1.40;;;0.90;;
20609;SDS011;10463;52.378;9.688;2023-07-16T02:53:14;1.77;;;1.27;;
20609;SDS011;10463;52.378;9.688;2023-07-16T02:56:00;2.80;;;1.47;;
20609;SDS011;10463;52.378;9.688;2023-07-16T02:58:44;3.17;;;1.93;;
20609;SDS011;10463;52.378;9.688;2023-07-16T03:01:29;1.90;;;1.10;;
20609;SDS011;10463;52.378;9.688;2023-07-16T03:04:14;2.27;;;1.37;;
20609;SDS011;10463;52.378;9.688;2023-07-16T03:06:58;1.73;;;1.13;;
20609;SDS011;10463;52.378;9.688;2023-07-16T03:09:44;2.07;;;1.43;;
20609;SDS011;10463;52.378;9.688;2023-07-16T03:12:29;1.93;;;1.43;;
20609;SDS011;10463;52.378;9.688;2023-07-16T03:15:14;2.23;;;1.23;;
20609;SDS011;10463;52.378;9.688;2023-07-16T03:17:59;1.77;;;1.20;;
20609;SDS011;10463;52.378;9.688;2023-07-16T03:20:43;1.90;;;1.50;;
20609;SDS011;10463;52.378;9.688;2023-07-16T03:23:28;1.70;;;1.03;;
20609;SDS011;10463;52.378;9.688;2023-07-16T03:26:14;1.97;;;1.30;;
20609;SDS011;10463;52.378;9.688;2023-07-16T03:28:59;2.13;;;1.17;;
20609;SDS011;10463;52.378;9.688;2023-07-16T03:31:45;1.90;;;1.10;;
20609;SDS011;10463;52.378;9.688;2023-07-16T03:34:31;2.23;;;1.43;;
20609;SDS011;10463;52.378;9.688;2023-07-16T03:37:15;1.90;;;1.20;;
20609;SDS011;10463;52.378;9.688;2023-07-16T03:40:12;2.20;;;1.20;;
20609;SDS011;10463;52.378;9.688;2023-07-16T03:43:01;1.93;;;1.10;;
20609;SDS011;10463;52.378;9.688;2023-07-16T03:45:46;1.87;;;1.33;;
20609;SDS011;10463;52.378;9.688;2023-07-16T03:48:31;2.07;;;1.60;;
20609;SDS011;10463;52.378;9.688;2023-07-16T03:51:15;2.00;;;1.30;;
20609;SDS011;10463;52.378;9.688;2023-07-16T03:54:01;1.70;;;1.30;;
20609;SDS011;10463;52.378;9.688;2023-07-16T03:56:45;1.73;;;1.10;;
20609;SDS011;10463;52.378;9.688;2023-07-16T03:59:31;1.80;;;1.20;;
20609;SDS011;10463;52.378;9.688;2023-07-16T04:02:16;1.87;;;1.27;;
20609;SDS011;10463;52.378;9.688;2023-07-16T04:05:00;1.50;;;1.10;;
20609;SDS011;10463;52.378;9.688;2023-07-16T04:07:46;4.30;;;1.40;;
20609;SDS011;10463;52.378;9.688;2023-07-16T04:10:31;1.70;;;1.23;;
20609;SDS011;10463;52.378;9.688;2023-07-16T04:13:15;1.90;;;1.40;;
20609;SDS011;10463;52.378;9.688;2023-07-16T04:16:01;1.67;;;1.20;;
20609;SDS011;10463;52.378;9.688;2023-07-16T04:18:46;2.07;;;1.53;;
20609;SDS011;10463;52.378;9.688;2023-07-16T04:21:31;1.70;;;1.10;;
20609;SDS011;10463;52.378;9.688;2023-07-16T04:24:16;1.70;;;1.20;;
20609;SDS011;10463;52.378;9.688;2023-07-16T04:27:01;1.57;;;1.20;;
20609;SDS011;10463;52.378;9.688;2023-07-16T04:29:46;1.73;;;1.33;;
20609;SDS011;10463;52.378;9.688;2023-07-16T04:32:32;1.80;;;1.10;;
20609;SDS011;10463;52.378;9.688;2023-07-16T04:35:16;2.97;;;1.60;;
20609;SDS011;10463;52.378;9.688;2023-07-16T04:38:02;2.10;;;1.20;;
20609;SDS011;10463;52.378;9.688;2023-07-16T04:40:46;1.63;;;1.30;;
20609;SDS011;10463;52.378;9.688;2023-07-16T04:43:31;2.03;;;1.40;;
20609;SDS011;10463;52.378;9.688;2023-07-16T04:46:16;2.10;;;1.37;;
20609;SDS011;10463;52.378;9.688;2023-07-16T04:49:04;2.40;;;1.60;;
20609;SDS011;10463;52.378;9.688;2023-07-16T04:51:50;1.90;;;1.20;;
20609;SDS011;10463;52.378;9.688;2023-07-16T04:54:35;1.90;;;1.30;;
20609;SDS011;10463;52.378;9.688;2023-07-16T04:57:21;1.93;;;1.33;;
20609;SDS011;10463;52.378;9.688;2023-07-16T05:00:07;1.77;;;1.20;;
20609;SDS011;10463;52.378;9.688;2023-07-16T05:02:52;1.90;;;1.50;;
20609;SDS011;10463;52.378;9.688;2023-07-16T05:05:38;1.60;;;1.10;;
20609;SDS011;10463;52.378;9.688;2023-07-16T05:08:23;3.73;;;1.70;;
20609;SDS011;10463;52.378;9.688;2023-07-16T05:11:07;1.70;;;1.30;;
20609;SDS011;10463;52.378;9.688;2023-07-16T05:13:52;2.03;;;1.67;;
20609;SDS011;10463;52.378;9.688;2023-07-16T05:16:36;1.80;;;1.33;;
20609;SDS011;10463;52.378;9.688;2023-07-16T05:19:21;1.83;;;1.33;;
20609;SDS011;10463;52.378;9.688;2023-07-16T05:22:08;2.00;;;1.47;;
20609;SDS011;10463;52.378;9.688;2023-07-16T05:24:52;1.87;;;1.60;;
20609;SDS011;10463;52.378;9.688;2023-07-16T05:27:37;1.93;;;1.43;;
20609;SDS011;10463;52.378;9.688;2023-07-16T05:30:22;2.30;;;1.30;;
20609;SDS011;10463;52.378;9.688;2023-07-16T05:33:07;1.80;;;1.30;;
20609;SDS011;10463;52.378;9.688;2023-07-16T05:35:51;2.03;;;1.47;;
20609;SDS011;10463;52.378;9.688;2023-07-16T05:38:37;2.00;;;1.60;;
20609;SDS011;10463;52.378;9.688;2023-07-16T05:41:22;2.77;;;1.60;;
20609;SDS011;10463;52.378;9.688;2023-07-16T05:44:06;2.00;;;1.37;;
20609;SDS011;10463;52.378;9.688;2023-07-16T05:46:52;2.30;;;1.87;;
20609;SDS011;10463;52.378;9.688;2023-07-16T05:49:37;1.83;;;1.40;;
20609;SDS011;10463;52.378;9.688;2023-07-16T05:52:22;2.00;;;1.47;;
20609;SDS011;10463;52.378;9.688;2023-07-16T05:55:08;2.10;;;1.33;;
20609;SDS011;10463;52.378;9.688;2023-07-16T05:57:52;1.73;;;1.23;;
20609;SDS011;10463;52.378;9.688;2023-07-16T06:00:37;1.70;;;1.30;;
20609;SDS011;10463;52.378;9.688;2023-07-16T06:03:23;1.70;;;1.20;;
20609;SDS011;10463;52.378;9.688;2023-07-16T06:06:08;2.10;;;1.40;;
20609;SDS011;10463;52.378;9.688;2023-07-16T06:08:53;2.00;;;1.40;;
20609;SDS011;10463;52.378;9.688;2023-07-16T06:11:39;2.17;;;1.50;;
20609;SDS011;10463;52.378;9.688;2023-07-16T06:14:23;2.00;;;1.30;;
20609;SDS011;10463;52.378;9.688;2023-07-16T06:17:09;2.10;;;1.20;;
20609;SDS011;10463;52.378;9.688;2023-07-16T06:19:54;2.23;;;1.60;;
20609;SDS011;10463;52.378;9.688;2023-07-16T06:22:38;1.50;;;1.20;;
20609;SDS011;10463;52.378;9.688;2023-07-16T06:25:23;1.80;;;1.30;;
20609;SDS011;10463;52.378;9.688;2023-07-16T06:28:09;1.90;;;1.30;;
20609;SDS011;10463;52.378;9.688;2023-07-16T06:30:54;2.10;;;1.30;;
20609;SDS011;10463;52.378;9.688;2023-07-16T06:33:39;2.30;;;1.40;;
20609;SDS011;10463;52.378;9.688;2023-07-16T06:36:23;2.00;;;1.20;;
20609;SDS011;10463;52.378;9.688;2023-07-16T06:39:08;1.70;;;1.30;;
20609;SDS011;10463;52.378;9.688;2023-07-16T06:41:53;1.97;;;1.33;;
20609;SDS011;10463;52.378;9.688;2023-07-16T06:44:40;2.57;;;1.37;;
20609;SDS011;10463;52.378;9.688;2023-07-16T06:47:25;2.33;;;1.27;;
20609;SDS011;10463;52.378;9.688;2023-07-16T06:50:10;2.00;;;1.37;;
20609;SDS011;10463;52.378;9.688;2023-07-16T06:52:55;2.30;;;1.33;;
20609;SDS011;10463;52.378;9.688;2023-07-16T06:55:39;2.20;;;1.50;;
20609;SDS011;10463;52.378;9.688;2023-07-16T06:58:30;2.13;;;1.30;;
20609;SDS011;10463;52.378;9.688;2023-07-16T07:01:17;2.40;;;1.47;;
20609;SDS011;10463;52.378;9.688;2023-07-16T07:04:02;2.40;;;1.40;;
20609;SDS011;10463;52.378;9.688;2023-07-16T07:06:47;1.70;;;1.30;;
20609;SDS011;10463;52.378;9.688;2023-07-16T07:09:32;1.83;;;1.27;;
20609;SDS011;10463;52.378;9.688;2023-07-16T07:12:17;2.30;;;1.70;;
20609;SDS011;10463;52.378;9.688;2023-07-16T07:15:01;2.17;;;1.50;;
20609;SDS011;10463;52.378;9.688;2023-07-16T07:17:47;2.00;;;1.40;;
20609;SDS011;10463;52.378;9.688;2023-07-16T07:20:34;2.30;;;1.47;;
20609;SDS011;10463;52.378;9.688;2023-07-16T07:23:18;2.20;;;1.30;;
20609;SDS011;10463;52.378;9.688;2023-07-16T07:26:03;1.80;;;1.30;;
20609;SDS011;10463;52.378;9.688;2023-07-16T07:28:47;2.10;;;1.30;;
20609;SDS011;10463;52.378;9.688;2023-07-16T07:31:32;2.13;;;1.53;;
20609;SDS011;10463;52.378;9.688;2023-07-16T07:34:18;2.20;;;1.40;;
20609;SDS011;10463;52.378;9.688;2023-07-16T07:37:04;2.50;;;1.63;;
20609;SDS011;10463;52.378;9.688;2023-07-16T07:39:51;4.93;;;1.70;;
20609;SDS011;10463;52.378;9.688;2023-07-16T07:42:37;2.00;;;1.50;;
20609;SDS011;10463;52.378;9.688;2023-07-16T07:45:21;2.47;;;1.60;;
20609;SDS011;10463;52.378;9.688;2023-07-16T07:48:07;3.70;;;2.07;;
20609;SDS011;10463;52.378;9.688;2023-07-16T07:50:53;2.20;;;1.60;;
20609;SDS011;10463;52.378;9.688;2023-07-16T07:53:38;2.90;;;2.13;;
20609;SDS011;10463;52.378;9.688;2023-07-16T07:56:23;1.87;;;1.47;;
20609;SDS011;10463;52.378;9.688;2023-07-16T07:59:08;2.00;;;1.70;;
20609;SDS011;10463;52.378;9.688;2023-07-16T08:01:53;2.73;;;1.67;;
20609;SDS011;10463;52.378;9.688;2023-07-16T08:04:37;2.60;;;2.00;;
20609;SDS011;10463;52.378;9.688;2023-07-16T08:07:24;3.07;;;1.40;;
20609;SDS011;10463;52.378;9.688;2023-07-16T08:10:10;2.80;;;1.77;;
20609;SDS011;10463;52.378;9.688;2023-07-16T08:12:54;2.40;;;1.80;;
20609;SDS011;10463;52.378;9.688;2023-07-16T08:15:39;2.67;;;2.30;;
20609;SDS011;10463;52.378;9.688;2023-07-16T08:18:24;3.53;;;2.27;;
20609;SDS011;10463;52.378;9.688;2023-07-16T08:21:08;2.17;;;1.70;;
20609;SDS011;10463;52.378;9.688;2023-07-16T08:23:54;2.33;;;1.80;;
20609;SDS011;10463;52.378;9.688;2023-07-16T08:26:39;2.07;;;1.70;;
20609;SDS011;10463;52.378;9.688;2023-07-16T08:29:24;2.70;;;2.23;;
20609;SDS011;10463;52.378;9.688;2023-07-16T08:32:08;2.27;;;1.90;;
20609;SDS011;10463;52.378;9.688;2023-07-16T08:34:53;2.50;;;1.73;;
20609;SDS011;10463;52.378;9.688;2023-07-16T08:37:37;2.93;;;2.10;;
20609;SDS011;10463;52.378;9.688;2023-07-16T08:40:23;2.90;;;1.80;;
20609;SDS011;10463;52.378;9.688;2023-07-16T08:43:08;3.00;;;1.90;;
20609;SDS011;10463;52.378;9.688;2023-07-16T08:45:56;3.50;;;2.27;;
20609;SDS011;10463;52.378;9.688;2023-07-16T08:48:41;3.93;;;2.47;;
20609;SDS011;10463;52.378;9.688;2023-07-16T08:51:26;2.70;;;2.50;;
20609;SDS011;10463;52.378;9.688;2023-07-16T08:54:12;2.77;;;2.10;;
20609;SDS011;10463;52.378;9.688;2023-07-16T08:57:00;3.13;;;2.00;;
20609;SDS011;10463;52.378;9.688;2023-07-16T08:59:47;3.77;;;2.87;;
20609;SDS011;10463;52.378;9.688;2023-07-16T09:02:32;3.53;;;2.30;;
20609;SDS011;10463;52.378;9.688;2023-07-16T09:05:16;2.60;;;2.30;;
20609;SDS011;10463;52.378;9.688;2023-07-16T09:08:05;2.80;;;2.03;;
20609;SDS011;10463;52.378;9.688;2023-07-16T09:10:53;3.30;;;2.13;;
20609;SDS011;10463;52.378;9.688;2023-07-16T09:13:44;3.00;;;1.87;;
20609;SDS011;10463;52.378;9.688;2023-07-16T09:16:32;2.33;;;2.13;;
20609;SDS011;10463;52.378;9.688;2023-07-16T09:19:18;2.40;;;1.93;;
20609;SDS011;10463;52.378;9.688;2023-07-16T09:22:03;3.60;;;2.17;;
20609;SDS011;10463;52.378;9.688;2023-07-16T09:24:48;2.80;;;2.23;;
20609;SDS011;10463;52.378;9.688;2023-07-16T09:27:32;2.33;;;1.90;;
20609;SDS011;10463;52.378;9.688;2023-07-16T09:30:19;3.97;;;2.17;;
20609;SDS011;10463;52.378;9.688;2023-07-16T09:33:09;2.57;;;2.00;;
20609;SDS011;10463;52.378;9.688;2023-07-16T09:35:56;2.47;;;2.00;;
20609;SDS011;10463;52.378;9.688;2023-07-16T09:38:41;2.57;;;2.00;;
20609;SDS011;10463;52.378;9.688;2023-07-16T09:41:27;2.53;;;2.10;;
20609;SDS011;10463;52.378;9.688;2023-07-16T09:44:13;3.20;;;1.90;;
20609;SDS011;10463;52.378;9.688;2023-07-16T09:47:00;2.30;;;2.00;;
20609;SDS011;10463;52.378;9.688;2023-07-16T09:49:44;2.27;;;1.80;;
20609;SDS011;10463;52.378;9.688;2023-07-16T09:52:29;2.93;;;2.17;;
20609;SDS011;10463;52.378;9.688;2023-07-16T09:55:16;2.63;;;2.23;;
20609;SDS011;10463;52.378;9.688;2023-07-16T09:58:07;3.10;;;2.20;;
20609;SDS011;10463;52.378;9.688;2023-07-16T10:00:55;2.33;;;1.80;;
20609;SDS011;10463;52.378;9.688;2023-07-16T10:03:49;2.80;;;1.90;;
20609;SDS011;10463;52.378;9.688;2023-07-16T10:06:34;1.90;;;1.70;;
20609;SDS011;10463;52.378;9.688;2023-07-16T10:09:35;2.60;;;2.07;;
20609;SDS011;10463;52.378;9.688;2023-07-16T10:12:22;4.00;;;2.10;;
20609;SDS011;10463;52.378;9.688;2023-07-16T10:15:08;2.40;;;1.90;;
20609;SDS011;10463;52.378;9.688;2023-07-16T10:17:56;2.70;;;2.30;;
20609;SDS011;10463;52.378;9.688;2023-07-16T10:20:42;2.70;;;2.00;;
20609;SDS011;10463;52.378;9.688;2023-07-16T10:23:36;3.20;;;1.90;;
20609;SDS011;10463;52.378;9.688;2023-07-16T10:26:26;2.53;;;2.10;;
20609;SDS011;10463;52.378;9.688;2023-07-16T10:29:14;2.27;;;2.07;;
20609;SDS011;10463;52.378;9.688;2023-07-16T10:31:59;3.13;;;2.57;;
20609;SDS011;10463;52.378;9.688;2023-07-16T10:34:44;2.57;;;2.10;;
20609;SDS011;10463;52.378;9.688;2023-07-16T10:37:30;2.50;;;2.10;;
20609;SDS011;10463;52.378;9.688;2023-07-16T10:40:16;3.80;;;2.10;;
20609;SDS011;10463;52.378;9.688;2023-07-16T10:43:00;3.00;;;1.83;;
20609;SDS011;10463;52.378;9.688;2023-07-16T10:45:45;2.53;;;1.87;;
20609;SDS011;10463;52.378;9.688;2023-07-16T10:48:31;2.43;;;2.00;;
20609;SDS011;10463;52.378;9.688;2023-07-16T10:51:16;2.30;;;1.80;;
20609;SDS011;10463;52.378;9.688;2023-07-16T10:54:02;2.43;;;2.07;;
20609;SDS011;10463;52.378;9.688;2023-07-16T10:56:49;3.23;;;2.00;;
20609;SDS011;10463;52.378;9.688;2023-07-16T10:59:37;2.30;;;1.70;;
20609;SDS011;10463;52.378;9.688;2023-07-16T11:02:24;2.83;;;2.00;;
20609;SDS011;10463;52.378;9.688;2023-07-16T11:05:10;2.27;;;1.90;;
20609;SDS011;10463;52.378;9.688;2023-07-16T11:07:55;2.70;;;1.83;;
20609;SDS011;10463;52.378;9.688;2023-07-16T11:10:41;2.77;;;2.03;;
20609;SDS011;10463;52.378;9.688;2023-07-16T11:13:26;1.90;;;1.50;;
20609;SDS011;10463;52.378;9.688;2023-07-16T11:16:11;2.53;;;2.00;;
20609;SDS011;10463;52.378;9.688;2023-07-16T11:18:56;2.77;;;1.80;;
20609;SDS011;10463;52.378;9.688;2023-07-16T11:21:41;2.53;;;2.30;;
20609;SDS011;10463;52.378;9.688;2023-07-16T11:24:25;2.87;;;1.60;;
20609;SDS011;10463;52.378;9.688;2023-07-16T11:27:16;3.10;;;2.27;;
20609;SDS011;10463;52.378;9.688;2023-07-16T11:30:04;3.13;;;1.70;;
20609;SDS011;10463;52.378;9.688;2023-07-16T11:32:51;2.57;;;2.00;;
20609;SDS011;10463;52.378;9.688;2023-07-16T11:35:36;3.27;;;2.23;;
20609;SDS011;10463;52.378;9.688;2023-07-16T11:38:21;2.50;;;2.30;;
20609;SDS011;10463;52.378;9.688;2023-07-16T11:41:06;2.50;;;1.60;;
20609;SDS011;10463;52.378;9.688;2023-07-16T11:43:52;2.50;;;1.97;;
20609;SDS011;10463;52.378;9.688;2023-07-16T11:46:36;2.43;;;2.03;;
20609;SDS011;10463;52.378;9.688;2023-07-16T11:49:21;2.40;;;2.03;;
20609;SDS011;10463;52.378;9.688;2023-07-16T11:52:06;2.47;;;1.67;;
20609;SDS011;10463;52.378;9.688;2023-07-16T11:54:52;3.13;;;2.03;;
20609;SDS011;10463;52.378;9.688;2023-07-16T11:57:37;2.20;;;1.90;;
20609;SDS011;10463;52.378;9.688;2023-07-16T12:00:23;2.20;;;1.70;;
20609;SDS011;10463;52.378;9.688;2023-07-16T12:03:08;2.77;;;2.30;;
20609;SDS011;10463;52.378;9.688;2023-07-16T12:05:53;1.93;;;1.63;;
20609;SDS011;10463;52.378;9.688;2023-07-16T12:08:37;3.33;;;2.30;;
20609;SDS011;10463;52.378;9.688;2023-07-16T12:11:22;3.20;;;2.60;;
20609;SDS011;10463;52.378;9.688;2023-07-16T12:14:07;2.17;;;1.70;;
20609;SDS011;10463;52.378;9.688;2023-07-16T12:16:54;3.50;;;1.93;;
20609;SDS011;10463;52.378;9.688;2023-07-16T12:19:40;3.07;;;2.17;;
20609;SDS011;10463;52.378;9.688;2023-07-16T12:22:24;2.50;;;1.93;;
20609;SDS011;10463;52.378;9.688;2023-07-16T12:25:09;2.73;;;2.17;;
20609;SDS011;10463;52.378;9.688;2023-07-16T12:27:54;2.47;;;2.27;;
20609;SDS011;10463;52.378;9.688;2023-07-16T12:30:41;2.23;;;1.80;;
20609;SDS011;10463;52.378;9.688;2023-07-16T12:33:27;2.63;;;1.97;;
20609;SDS011;10463;52.378;9.688;2023-07-16T12:36:12;2.33;;;1.70;;
20609;SDS011;10463;52.378;9.688;2023-07-16T12:38:58;1.83;;;1.50;;
20609;SDS011;10463;52.378;9.688;2023-07-16T12:41:44;2.03;;;1.77;;
20609;SDS011;10463;52.378;9.688;2023-07-16T12:44:29;2.77;;;2.10;;
20609;SDS011;10463;52.378;9.688;2023-07-16T12:47:14;2.17;;;1.47;;
20609;SDS011;10463;52.378;9.688;2023-07-16T12:50:00;2.83;;;1.93;;
20609;SDS011;10463;52.378;9.688;2023-07-16T12:52:44;2.20;;;1.70;;
20609;SDS011;10463;52.378;9.688;2023-07-16T12:55:29;2.50;;;1.90;;
20609;SDS011;10463;52.378;9.688;2023-07-16T12:58:15;2.23;;;1.80;;
20609;SDS011;10463;52.378;9.688;2023-07-16T13:01:00;2.00;;;1.50;;
20609;SDS011;10463;52.378;9.688;2023-07-16T13:03:45;2.40;;;1.93;;
20609;SDS011;10463;52.378;9.688;2023-07-16T13:06:31;2.30;;;1.90;;
20609;SDS011;10463;52.378;9.688;2023-07-16T13:09:16;2.63;;;2.00;;
20609;SDS011;10463;52.378;9.688;2023-07-16T13:12:00;2.60;;;2.37;;
20609;SDS011;10463;52.378;9.688;2023-07-16T13:14:45;2.30;;;1.60;;
20609;SDS011;10463;52.378;9.688;2023-07-16T13:17:30;2.00;;;1.80;;
20609;SDS011;10463;52.378;9.688;2023-07-16T13:20:14;2.50;;;1.77;;
20609;SDS011;10463;52.378;9.688;2023-07-16T13:23:01;2.50;;;1.77;;
20609;SDS011;10463;52.378;9.688;2023-07-16T13:25:46;2.10;;;1.60;;
20609;SDS011;10463;52.378;9.688;2023-07-16T13:28:35;3.00;;;2.10;;
20609;SDS011;10463;52.378;9.688;2023-07-16T13:31:20;2.47;;;2.00;;
20609;SDS011;10463;52.378;9.688;2023-07-16T13:34:05;1.93;;;1.40;;
20609;SDS011;10463;52.378;9.688;2023-07-16T13:36:49;2.43;;;1.93;;
20609;SDS011;10463;52.378;9.688;2023-07-16T13:39:35;2.57;;;1.90;;
20609;SDS011;10463;52.378;9.688;2023-07-16T13:42:20;2.80;;;1.87;;
20609;SDS011;10463;52.378;9.688;2023-07-16T13:45:05;3.07;;;2.10;;
20609;SDS011;10463;52.378;9.688;2023-07-16T13:47:51;2.50;;;1.83;;
20609;SDS011;10463;52.378;9.688;2023-07-16T13:50:36;2.33;;;1.70;;
20609;SDS011;10463;52.378;9.688;2023-07-16T13:53:21;2.03;;;1.57;;
20609;SDS011;10463;52.378;9.688;2023-07-16T13:56:07;2.40;;;2.03;;
20609;SDS011;10463;52.378;9.688;2023-07-16T13:58:52;2.87;;;2.57;;
20609;SDS011;10463;52.378;9.688;2023-07-16T14:01:38;2.47;;;2.10;;
20609;SDS011;10463;52.378;9.688;2023-07-16T14:04:23;3.07;;;2.10;;
20609;SDS011;10463;52.378;9.688;2023-07-16T14:07:08;2.40;;;2.17;;
20609;SDS011;10463;52.378;9.688;2023-07-16T14:09:52;2.57;;;2.10;;
20609;SDS011;10463;52.378;9.688;2023-07-16T14:12:39;2.20;;;2.00;;
20609;SDS011;10463;52.378;9.688;2023-07-16T14:15:23;2.33;;;2.03;;
20609;SDS011;10463;52.378;9.688;2023-07-16T14:18:09;2.33;;;1.80;;
20609;SDS011;10463;52.378;9.688;2023-07-16T14:20:55;3.07;;;1.90;;
20609;SDS011;10463;52.378;9.688;2023-07-16T14:23:40;2.50;;;2.03;;
20609;SDS011;10463;52.378;9.688;2023-07-16T14:26:25;2.70;;;2.30;;
20609;SDS011;10463;52.378;9.688;2023-07-16T14:29:11;2.33;;;1.80;;
20609;SDS011;10463;52.378;9.688;2023-07-16T14:31:55;2.60;;;1.90;;
20609;SDS011;10463;52.378;9.688;2023-07-16T14:34:40;2.50;;;1.97;;
20609;SDS011;10463;52.378;9.688;2023-07-16T14:37:26;2.60;;;1.93;;
20609;SDS011;10463;52.378;9.688;2023-07-16T14:40:11;2.53;;;2.17;;
20609;SDS011;10463;52.378;9.688;2023-07-16T14:42:56;2.83;;;2.30;;
20609;SDS011;10463;52.378;9.688;2023-07-16T14:45:42;2.50;;;2.00;;
20609;SDS011;10463;52.378;9.688;2023-07-16T14:48:26;2.40;;;2.20;;
20609;SDS011;10463;52.378;9.688;2023-07-16T14:51:11;2.93;;;2.07;;
20609;SDS011;10463;52.378;9.688;2023-07-16T14:53:57;2.07;;;1.87;;
20609;SDS011;10463;52.378;9.688;2023-07-16T14:56:41;2.33;;;2.13;;
20609;SDS011;10463;52.378;9.688;2023-07-16T14:59:26;3.97;;;2.40;;
20609;SDS011;10463;52.378;9.688;2023-07-16T15:02:12;2.40;;;1.93;;
20609;SDS011;10463;52.378;9.688;2023-07-16T15:04:57;4.80;;;3.43;;
20609;SDS011;10463;52.378;9.688;2023-07-16T15:07:42;4.23;;;3.43;;
20609;SDS011;10463;52.378;9.688;2023-07-16T15:10:27;4.80;;;3.40;;
20609;SDS011;10463;52.378;9.688;2023-07-16T15:13:11;3.43;;;2.93;;
20609;SDS011;10463;52.378;9.688;2023-07-16T15:15:57;4.67;;;3.57;;
20609;SDS011;10463;52.378;9.688;2023-07-16T15:18:43;4.33;;;3.50;;
20609;SDS011;10463;52.378;9.688;2023-07-16T15:21:29;3.47;;;3.17;;
20609;SDS011;10463;52.378;9.688;2023-07-16T15:24:14;5.67;;;4.23;;
20609;SDS011;10463;52.378;9.688;2023-07-16T15:26:58;4.83;;;3.17;;
20609;SDS011;10463;52.378;9.688;2023-07-16T15:29:43;4.83;;;3.53;;
20609;SDS011;10463;52.378;9.688;2023-07-16T15:32:28;5.40;;;4.30;;
20609;SDS011;10463;52.378;9.688;2023-07-16T15:35:14;5.10;;;3.73;;
20609;SDS011;10463;52.378;9.688;2023-07-16T15:37:59;6.73;;;3.97;;
20609;SDS011;10463;52.378;9.688;2023-07-16T15:40:44;3.10;;;2.80;;
20609;SDS011;10463;52.378;9.688;2023-07-16T15:43:29;4.70;;;3.27;;
20609;SDS011;10463;52.378;9.688;2023-07-16T15:46:14;4.80;;;3.40;;
20609;SDS011;10463;52.378;9.688;2023-07-16T15:49:00;4.13;;;3.70;;
20609;SDS011;10463;52.378;9.688;2023-07-16T15:51:46;5.40;;;3.60;;
20609;SDS011;10463;52.378;9.688;2023-07-16T15:54:31;3.80;;;3.17;;
20609;SDS011;10463;52.378;9.688;2023-07-16T15:57:15;4.43;;;3.10;;
20609;SDS011;10463;52.378;9.688;2023-07-16T16:00:00;4.63;;;2.90;;
20609;SDS011;10463;52.378;9.688;2023-07-16T16:02:44;3.43;;;2.80;;
20609;SDS011;10463;52.378;9.688;2023-07-16T16:05:30;3.27;;;2.80;;
20609;SDS011;10463;52.378;9.688;2023-07-16T16:08:17;4.03;;;3.03;;
20609;SDS011;10463;52.378;9.688;2023-07-16T16:11:03;4.23;;;3.00;;
20609;SDS011;10463;52.378;9.688;2023-07-16T16:13:47;3.57;;;2.97;;
20609;SDS011;10463;52.378;9.688;2023-07-16T16:16:32;3.70;;;2.80;;
20609;SDS011;10463;52.378;9.688;2023-07-16T16:19:18;2.60;;;2.30;;
20609;SDS011;10463;52.378;9.688;2023-07-16T16:22:03;3.53;;;2.40;;
20609;SDS011;10463;52.378;9.688;2023-07-16T16:24:50;4.00;;;2.43;;
20609;SDS011;10463;52.378;9.688;2023-07-16T16:27:34;4.00;;;2.80;;
20609;SDS011;10463;52.378;9.688;2023-07-16T16:30:20;3.97;;;3.13;;
20609;SDS011;10463;52.378;9.688;2023-07-16T16:33:05;3.70;;;2.73;;
20609;SDS011;10463;52.378;9.688;2023-07-16T16:35:52;2.50;;;2.10;;
20609;SDS011;10463;52.378;9.688;2023-07-16T16:38:36;3.60;;;2.47;;